sensor_id;sensor_type;location;lat;lon;timestamp;pressure;altitude;pressure_sealevel;temperature;humidity
20119;BME280;10220;42.716;23.306;2023-03-01T00:01:26;95750.13;;;6.90;100.00
20119;BME280;10220;42.716;23.306;2023-03-01T00:03:58;95707.88;;;6.77;100.00
20119;BME280;10220;42.716;23.306;2023-03-01T00:06:27;95724.03;;;6.93;100.00
20119;BME280;10220;42.716;23.306;2023-03-01T00:08:53;95736.28;;;6.99;100.00
20119;BME280;10220;42.716;23.306;2023-03-01T00:11:40;95732.91;;;6.91;100.00
20119;BME280;10220;42.716;23.306;2023-03-01T00:14:21;95740.63;;;6.91;100.00
20119;BME280;10220;42.716;23.306;2023-03-01T00:16:47;95720.50;;;6.94;100.00
20119;BME280;10220;42.716;23.306;2023-03-01T00:19:21;95722.16;;;6.87;100.00
20119;BME280;10220;42.716;23.306;2023-03-01T00:21:53;95708.47;;;6.87;100.00
20119;BME280;10220;42.716;23.306;2023-03-01T00:24:41;95719.75;;;6.86;100.00
20119;BME280;10220;42.716;23.306;2023-03-01T00:27:12;95675.16;;;6.47;100.00
20119;BME280;10220;42.716;23.306;2023-03-01T00:29:40;95718.97;;;6.77;100.00
20119;BME280;10220;42.716;23.306;2023-03-01T00:32:11;95652.34;;;6.44;100.00
20119;BME280;10220;42.716;23.306;2023-03-01T00:34:37;95702.91;;;6.67;100.00
20119;BME280;10220;42.716;23.306;2023-03-01T00:37:05;95697.88;;;6.74;100.00
20119;BME280;10220;42.716;23.306;2023-03-01T00:39:31;95705.63;;;6.74;100.00
20119;BME280;10220;42.716;23.306;2023-03-01T00:41:57;95698.25;;;6.63;100.00
20119;BME280;10220;42.716;23.306;2023-03-01T00:44:23;95693.44;;;6.68;100.00
20119;BME280;10220;42.716;23.306;2023-03-01T00:46:48;95674.25;;;6.78;100.00
20119;BME280;10220;42.716;23.306;2023-03-01T00:49:14;95701.13;;;6.76;100.00
20119;BME280;10220;42.716;23.306;2023-03-01T00:51:39;95686.38;;;6.54;100.00
20119;BME280;10220;42.716;23.306;2023-03-01T00:54:08;95689.78;;;6.54;100.00
20119;BME280;10220;42.716;23.306;2023-03-01T00:56:34;95684.81;;;6.45;100.00
20119;BME280;10220;42.716;23.306;2023-03-01T00:59:00;95694.91;;;6.62;100.00
20119;BME280;10220;42.716;23.306;2023-03-01T01:01:28;95693.28;;;6.61;100.00
20119;BME280;10220;42.716;23.306;2023-03-01T01:03:59;95684.94;;;6.51;100.00
20119;BME280;10220;42.716;23.306;2023-03-01T01:06:34;95645.16;;;6.24;100.00
20119;BME280;10220;42.716;23.306;2023-03-01T01:09:02;95693.31;;;6.53;100.00
20119;BME280;10220;42.716;23.306;2023-03-01T01:11:32;95704.41;;;6.54;100.00
20119;BME280;10220;42.716;23.306;2023-03-01T01:13:58;95695.56;;;6.56;100.00
20119;BME280;10220;42.716;23.306;2023-03-01T01:16:25;95690.91;;;6.52;100.00
20119;BME280;10220;42.716;23.306;2023-03-01T01:18:55;95702.47;;;6.56;100.00
20119;BME280;10220;42.716;23.306;2023-03-01T01:21:23;95663.50;;;6.21;100.00
20119;BME280;10220;42.716;23.306;2023-03-01T01:23:50;95700.72;;;6.48;100.00
20119;BME280;10220;42.716;23.306;2023-03-01T01:26:22;95689.94;;;6.45;100.00
20119;BME280;10220;42.716;23.306;2023-03-01T01:28:48;95690.06;;;6.59;100.00
20119;BME280;10220;42.716;23.306;2023-03-01T01:31:14;95675.03;;;6.41;100.00
20119;BME280;10220;42.716;23.306;2023-03-01T01:33:40;95678.88;;;6.37;100.00
20119;BME280;10220;42.716;23.306;2023-03-01T01:36:06;95687.53;;;6.43;100.00
20119;BME280;10220;42.716;23.306;2023-03-01T01:38:37;95704.19;;;6.63;100.00
20119;BME280;10220;42.716;23.306;2023-03-01T01:41:03;95713.88;;;6.61;100.00
20119;BME280;10220;42.716;23.306;2023-03-01T01:43:40;95689.81;;;6.31;100.00
20119;BME280;10220;42.716;23.306;2023-03-01T01:48:52;95705.53;;;6.51;100.00
20119;BME280;10220;42.716;23.306;2023-03-01T01:51:25;95713.72;;;6.55;100.00
20119;BME280;10220;42.716;23.306;2023-03-01T01:53:57;95710.06;;;6.42;100.00
20119;BME280;10220;42.716;23.306;2023-03-01T01:56:24;95707.97;;;6.37;100.00
20119;BME280;10220;42.716;23.306;2023-03-01T01:58:52;95694.19;;;6.30;100.00
20119;BME280;10220;42.716;23.306;2023-03-01T02:01:18;95683.59;;;6.17;100.00
20119;BME280;10220;42.716;23.306;2023-03-01T02:03:45;95688.38;;;6.28;100.00
20119;BME280;10220;42.716;23.306;2023-03-01T02:06:29;95694.00;;;6.32;100.00
20119;BME280;10220;42.716;23.306;2023-03-01T02:08:59;95693.50;;;6.36;100.00
20119;BME280;10220;42.716;23.306;2023-03-01T02:11:27;95685.50;;;6.31;100.00
20119;BME280;10220;42.716;23.306;2023-03-01T02:13:54;95664.91;;;6.39;100.00
20119;BME280;10220;42.716;23.306;2023-03-01T02:16:20;95678.66;;;6.54;100.00
20119;BME280;10220;42.716;23.306;2023-03-01T02:18:46;95667.91;;;6.50;100.00
20119;BME280;10220;42.716;23.306;2023-03-01T02:21:52;95675.00;;;6.48;100.00
20119;BME280;10220;42.716;23.306;2023-03-01T02:24:38;95662.63;;;6.36;100.00
20119;BME280;10220;42.716;23.306;2023-03-01T02:27:05;95650.47;;;6.30;100.00
20119;BME280;10220;42.716;23.306;2023-03-01T02:29:30;95661.53;;;6.31;100.00
20119;BME280;10220;42.716;23.306;2023-03-01T02:31:58;95677.09;;;6.45;100.00
20119;BME280;10220;42.716;23.306;2023-03-01T02:34:25;95649.81;;;6.20;100.00
20119;BME280;10220;42.716;23.306;2023-03-01T02:36:56;95686.06;;;6.49;100.00
20119;BME280;10220;42.716;23.306;2023-03-01T02:39:43;95686.72;;;6.51;100.00
20119;BME280;10220;42.716;23.306;2023-03-01T02:42:13;95685.44;;;6.55;100.00
20119;BME280;10220;42.716;23.306;2023-03-01T02:44:39;95695.56;;;6.56;100.00
20119;BME280;10220;42.716;23.306;2023-03-01T02:47:05;95677.19;;;6.59;100.00
20119;BME280;10220;42.716;23.306;2023-03-01T02:49:34;95673.56;;;6.38;100.00
20119;BME280;10220;42.716;23.306;2023-03-01T02:54:55;95692.03;;;6.57;100.00
20119;BME280;10220;42.716;23.306;2023-03-01T02:57:24;95681.44;;;6.44;100.00
20119;BME280;10220;42.716;23.306;2023-03-01T02:59:51;95682.88;;;6.47;100.00
20119;BME280;10220;42.716;23.306;2023-03-01T03:02:24;95685.44;;;6.47;100.00
20119;BME280;10220;42.716;23.306;2023-03-01T03:05:17;95686.91;;;6.34;100.00
20119;BME280;10220;42.716;23.306;2023-03-01T03:07:44;95675.03;;;6.41;100.00
20119;BME280;10220;42.716;23.306;2023-03-01T03:10:18;95684.47;;;6.56;100.00
20119;BME280;10220;42.716;23.306;2023-03-01T03:12:52;95669.91;;;6.33;100.00
20119;BME280;10220;42.716;23.306;2023-03-01T03:15:18;95686.06;;;6.49;100.00
20119;BME280;10220;42.716;23.306;2023-03-01T03:17:45;95681.50;;;6.21;100.00
20119;BME280;10220;42.716;23.306;2023-03-01T03:20:13;95691.44;;;6.32;100.00
20119;BME280;10220;42.716;23.306;2023-03-01T03:22:44;95693.69;;;6.27;100.00
20119;BME280;10220;42.716;23.306;2023-03-01T03:25:10;95702.38;;;6.26;100.00
20119;BME280;10220;42.716;23.306;2023-03-01T03:27:39;95692.41;;;6.23;100.00
20119;BME280;10220;42.716;23.306;2023-03-01T03:30:14;95663.94;;;6.32;100.00
20119;BME280;10220;42.716;23.306;2023-03-01T03:32:42;95702.50;;;6.40;100.00
20119;BME280;10220;42.716;23.306;2023-03-01T03:35:33;95706.69;;;6.33;100.00
20119;BME280;10220;42.716;23.306;2023-03-01T03:38:04;95683.06;;;6.30;100.00
20119;BME280;10220;42.716;23.306;2023-03-01T03:40:41;95698.19;;;6.41;100.00
20119;BME280;10220;42.716;23.306;2023-03-01T03:43:22;95710.09;;;6.26;100.00
20119;BME280;10220;42.716;23.306;2023-03-01T03:45:49;95708.16;;;6.36;100.00
20119;BME280;10220;42.716;23.306;2023-03-01T03:48:16;95700.94;;;6.31;100.00
20119;BME280;10220;42.716;23.306;2023-03-01T03:50:50;95707.50;;;6.42;100.00
20119;BME280;10220;42.716;23.306;2023-03-01T03:53:15;95717.78;;;6.34;100.00
20119;BME280;10220;42.716;23.306;2023-03-01T03:55:41;95698.22;;;6.17;100.00
20119;BME280;10220;42.716;23.306;2023-03-01T03:58:08;95701.59;;;6.17;100.00
20119;BME280;10220;42.716;23.306;2023-03-01T04:00:43;95698.53;;;6.14;100.00
20119;BME280;10220;42.716;23.306;2023-03-01T04:03:13;95687.94;;;6.09;100.00
20119;BME280;10220;42.716;23.306;2023-03-01T04:05:40;95701.91;;;6.06;100.00
20119;BME280;10220;42.716;23.306;2023-03-01T04:08:06;95702.22;;;6.19;100.00
20119;BME280;10220;42.716;23.306;2023-03-01T04:10:44;95694.38;;;5.97;100.00
20119;BME280;10220;42.716;23.306;2023-03-01T04:13:17;95685.72;;;5.90;100.00
20119;BME280;10220;42.716;23.306;2023-03-01T04:15:51;95714.13;;;6.12;100.00
20119;BME280;10220;42.716;23.306;2023-03-01T04:18:17;95676.38;;;5.89;100.00
20119;BME280;10220;42.716;23.306;2023-03-01T04:20:43;95688.59;;;6.03;100.00
20119;BME280;10220;42.716;23.306;2023-03-01T04:23:18;95712.06;;;6.00;100.00
20119;BME280;10220;42.716;23.306;2023-03-01T04:25:49;95718.16;;;5.99;100.00
20119;BME280;10220;42.716;23.306;2023-03-01T04:28:29;95711.06;;;6.01;100.00
20119;BME280;10220;42.716;23.306;2023-03-01T04:30:56;95711.72;;;6.11;100.00
20119;BME280;10220;42.716;23.306;2023-03-01T04:33:25;95692.91;;;6.02;100.00
20119;BME280;10220;42.716;23.306;2023-03-01T04:35:51;95724.25;;;5.98;100.00
20119;BME280;10220;42.716;23.306;2023-03-01T04:38:20;95705.13;;;6.08;100.00
20119;BME280;10220;42.716;23.306;2023-03-01T04:40:46;95689.22;;;6.13;100.00
20119;BME280;10220;42.716;23.306;2023-03-01T04:43:12;95693.06;;;6.09;100.00
20119;BME280;10220;42.716;23.306;2023-03-01T04:45:43;95702.56;;;6.08;100.00
20119;BME280;10220;42.716;23.306;2023-03-01T04:48:08;95700.78;;;6.09;100.00
20119;BME280;10220;42.716;23.306;2023-03-01T04:50:34;95705.94;;;6.09;100.00
20119;BME280;10220;42.716;23.306;2023-03-01T04:53:12;95680.91;;;5.87;100.00
20119;BME280;10220;42.716;23.306;2023-03-01T04:55:44;95661.78;;;5.89;100.00
20119;BME280;10220;42.716;23.306;2023-03-01T04:58:12;95684.91;;;5.82;100.00
20119;BME280;10220;42.716;23.306;2023-03-01T05:00:37;95708.84;;;6.06;100.00
20119;BME280;10220;42.716;23.306;2023-03-01T05:03:03;95686.84;;;5.80;100.00
20119;BME280;10220;42.716;23.306;2023-03-01T05:05:39;95671.91;;;5.99;100.00
20119;BME280;10220;42.716;23.306;2023-03-01T05:08:06;95694.88;;;5.92;100.00
20119;BME280;10220;42.716;23.306;2023-03-01T05:10:36;95687.91;;;5.37;100.00
20119;BME280;10220;42.716;23.306;2023-03-01T05:13:02;95692.41;;;5.43;100.00
20119;BME280;10220;42.716;23.306;2023-03-01T05:15:29;95713.75;;;5.44;100.00
20119;BME280;10220;42.716;23.306;2023-03-01T05:17:57;95710.84;;;5.31;100.00
20119;BME280;10220;42.716;23.306;2023-03-01T05:20:27;95719.38;;;5.39;100.00
20119;BME280;10220;42.716;23.306;2023-03-01T05:22:56;95709.44;;;5.52;100.00
20119;BME280;10220;42.716;23.306;2023-03-01T05:25:24;95699.06;;;5.93;100.00
20119;BME280;10220;42.716;23.306;2023-03-01T05:27:49;95712.22;;;5.90;100.00
20119;BME280;10220;42.716;23.306;2023-03-01T05:30:15;95719.28;;;5.88;100.00
20119;BME280;10220;42.716;23.306;2023-03-01T05:33:01;95710.91;;;5.71;100.00
20119;BME280;10220;42.716;23.306;2023-03-01T05:35:49;95706.59;;;5.95;100.00
20119;BME280;10220;42.716;23.306;2023-03-01T05:38:21;95708.19;;;5.88;100.00
20119;BME280;10220;42.716;23.306;2023-03-01T05:40:50;95698.88;;;5.79;100.00
20119;BME280;10220;42.716;23.306;2023-03-01T05:43:19;95714.94;;;5.81;100.00
20119;BME280;10220;42.716;23.306;2023-03-01T05:45:45;95692.78;;;5.80;100.00
20119;BME280;10220;42.716;23.306;2023-03-01T05:48:21;95700.03;;;5.77;100.00
20119;BME280;10220;42.716;23.306;2023-03-01T05:50:58;95686.97;;;5.62;100.00
20119;BME280;10220;42.716;23.306;2023-03-01T05:53:25;95713.97;;;6.06;100.00
20119;BME280;10220;42.716;23.306;2023-03-01T05:55:56;95731.00;;;6.07;100.00
20119;BME280;10220;42.716;23.306;2023-03-01T05:58:28;95703.88;;;5.81;100.00
20119;BME280;10220;42.716;23.306;2023-03-01T06:00:55;95739.69;;;5.98;100.00
20119;BME280;10220;42.716;23.306;2023-03-01T06:03:21;95741.59;;;5.96;100.00
20119;BME280;10220;42.716;23.306;2023-03-01T06:05:46;95735.22;;;6.00;100.00
20119;BME280;10220;42.716;23.306;2023-03-01T06:08:12;95748.69;;;5.86;100.00
20119;BME280;10220;42.716;23.306;2023-03-01T06:10:38;95727.13;;;5.79;100.00
20119;BME280;10220;42.716;23.306;2023-03-01T06:13:04;95750.63;;;6.16;100.00
20119;BME280;10220;42.716;23.306;2023-03-01T06:15:32;95747.06;;;5.93;100.00
20119;BME280;10220;42.716;23.306;2023-03-01T06:17:57;95725.81;;;5.67;100.00
20119;BME280;10220;42.716;23.306;2023-03-01T06:20:25;95766.19;;;5.98;100.00
20119;BME280;10220;42.716;23.306;2023-03-01T06:22:51;95741.28;;;6.07;100.00
20119;BME280;10220;42.716;23.306;2023-03-01T06:25:24;95755.75;;;6.08;100.00
20119;BME280;10220;42.716;23.306;2023-03-01T06:27:50;95759.47;;;6.13;100.00
20119;BME280;10220;42.716;23.306;2023-03-01T06:30:19;95718.19;;;5.83;100.00
20119;BME280;10220;42.716;23.306;2023-03-01T06:32:45;95753.50;;;6.13;100.00
20119;BME280;10220;42.716;23.306;2023-03-01T06:35:12;95762.66;;;5.99;100.00
20119;BME280;10220;42.716;23.306;2023-03-01T06:37:44;95739.19;;;5.86;100.00
20119;BME280;10220;42.716;23.306;2023-03-01T06:40:13;95699.34;;;5.67;100.00
20119;BME280;10220;42.716;23.306;2023-03-01T06:42:40;95751.41;;;6.08;100.00
20119;BME280;10220;42.716;23.306;2023-03-01T06:45:10;95717.34;;;5.82;100.00
20119;BME280;10220;42.716;23.306;2023-03-01T06:47:36;95741.31;;;5.91;100.00
20119;BME280;10220;42.716;23.306;2023-03-01T06:50:02;95759.59;;;6.28;100.00
20119;BME280;10220;42.716;23.306;2023-03-01T06:52:28;95741.63;;;6.04;100.00
20119;BME280;10220;42.716;23.306;2023-03-01T06:54:54;95752.06;;;6.26;100.00
20119;BME280;10220;42.716;23.306;2023-03-01T06:57:20;95729.09;;;6.17;100.00
20119;BME280;10220;42.716;23.306;2023-03-01T06:59:46;95732.28;;;6.27;100.00
20119;BME280;10220;42.716;23.306;2023-03-01T07:02:13;95766.19;;;6.30;100.00
20119;BME280;10220;42.716;23.306;2023-03-01T07:04:40;95760.56;;;6.27;100.00
20119;BME280;10220;42.716;23.306;2023-03-01T07:07:06;95767.66;;;6.33;100.00
20119;BME280;10220;42.716;23.306;2023-03-01T07:09:31;95760.56;;;6.35;100.00
20119;BME280;10220;42.716;23.306;2023-03-01T07:11:59;95747.06;;;6.25;100.00
20119;BME280;10220;42.716;23.306;2023-03-01T07:14:24;95771.66;;;6.19;100.00
20119;BME280;10220;42.716;23.306;2023-03-01T07:16:51;95756.72;;;6.23;100.00
20119;BME280;10220;42.716;23.306;2023-03-01T07:19:18;95760.41;;;6.28;100.00
20119;BME280;10220;42.716;23.306;2023-03-01T07:21:44;95769.41;;;6.24;100.00
20119;BME280;10220;42.716;23.306;2023-03-01T07:24:10;95757.06;;;6.12;100.00
20119;BME280;10220;42.716;23.306;2023-03-01T07:26:36;95758.00;;;6.19;100.00
20119;BME280;10220;42.716;23.306;2023-03-01T07:29:03;95753.97;;;6.08;100.00
20119;BME280;10220;42.716;23.306;2023-03-01T07:31:29;95741.13;;;6.16;100.00
20119;BME280;10220;42.716;23.306;2023-03-01T07:33:55;95732.28;;;6.19;100.00
20119;BME280;10220;42.716;23.306;2023-03-01T07:36:20;95746.09;;;6.42;100.00
20119;BME280;10220;42.716;23.306;2023-03-01T07:38:46;95730.31;;;6.44;100.00
20119;BME280;10220;42.716;23.306;2023-03-01T07:41:12;95734.34;;;6.39;100.00
20119;BME280;10220;42.716;23.306;2023-03-01T07:43:37;95742.88;;;6.40;100.00
20119;BME280;10220;42.716;23.306;2023-03-01T07:46:03;95743.81;;;6.46;100.00
20119;BME280;10220;42.716;23.306;2023-03-01T07:48:29;95751.19;;;6.65;100.00
20119;BME280;10220;42.716;23.306;2023-03-01T07:50:58;95725.63;;;6.56;100.00
20119;BME280;10220;42.716;23.306;2023-03-01T07:53:24;95736.38;;;6.59;100.00
20119;BME280;10220;42.716;23.306;2023-03-01T07:55:50;95732.66;;;6.70;100.00
20119;BME280;10220;42.716;23.306;2023-03-01T07:58:24;95715.53;;;6.31;100.00
20119;BME280;10220;42.716;23.306;2023-03-01T08:00:50;95735.41;;;6.60;100.00
20119;BME280;10220;42.716;23.306;2023-03-01T08:03:15;95728.38;;;6.54;100.00
20119;BME280;10220;42.716;23.306;2023-03-01T08:05:43;95731.56;;;6.56;100.00
20119;BME280;10220;42.716;23.306;2023-03-01T08:08:09;95724.13;;;6.77;100.00
20119;BME280;10220;42.716;23.306;2023-03-01T08:10:36;95724.09;;;6.85;100.00
20119;BME280;10220;42.716;23.306;2023-03-01T08:13:01;95724.28;;;6.76;100.00
20119;BME280;10220;42.716;23.306;2023-03-01T08:15:26;95717.38;;;6.68;100.00
20119;BME280;10220;42.716;23.306;2023-03-01T08:17:52;95721.06;;;6.82;100.00
20119;BME280;10220;42.716;23.306;2023-03-01T08:20:17;95709.63;;;6.76;100.00
20119;BME280;10220;42.716;23.306;2023-03-01T08:22:43;95680.53;;;6.76;100.00
20119;BME280;10220;42.716;23.306;2023-03-01T08:25:08;95726.84;;;7.14;100.00
20119;BME280;10220;42.716;23.306;2023-03-01T08:27:34;95705.63;;;6.82;100.00
20119;BME280;10220;42.716;23.306;2023-03-01T08:29:59;95734.16;;;7.02;100.00
20119;BME280;10220;42.716;23.306;2023-03-01T08:32:25;95699.44;;;6.91;100.00
20119;BME280;10220;42.716;23.306;2023-03-01T08:34:50;95715.38;;;6.94;100.00
20119;BME280;10220;42.716;23.306;2023-03-01T08:37:16;95716.00;;;6.88;100.00
20119;BME280;10220;42.716;23.306;2023-03-01T08:39:41;95717.31;;;6.84;100.00
20119;BME280;10220;42.716;23.306;2023-03-01T08:42:07;95725.69;;;6.86;100.00
20119;BME280;10220;42.716;23.306;2023-03-01T08:44:32;95725.78;;;7.00;100.00
20119;BME280;10220;42.716;23.306;2023-03-01T08:46:58;95725.28;;;7.05;100.00
20119;BME280;10220;42.716;23.306;2023-03-01T08:49:25;95725.59;;;7.10;100.00
20119;BME280;10220;42.716;23.306;2023-03-01T08:51:50;95717.03;;;7.17;100.00
20119;BME280;10220;42.716;23.306;2023-03-01T08:54:19;95707.25;;;7.13;100.00
20119;BME280;10220;42.716;23.306;2023-03-01T08:56:45;95721.66;;;7.22;100.00
20119;BME280;10220;42.716;23.306;2023-03-01T08:59:11;95701.97;;;7.06;100.00
20119;BME280;10220;42.716;23.306;2023-03-01T09:01:37;95723.78;;;7.18;100.00
20119;BME280;10220;42.716;23.306;2023-03-01T09:04:03;95731.69;;;7.47;100.00
20119;BME280;10220;42.716;23.306;2023-03-01T09:06:33;95727.63;;;7.53;100.00
20119;BME280;10220;42.716;23.306;2023-03-01T09:09:00;95737.09;;;7.60;100.00
20119;BME280;10220;42.716;23.306;2023-03-01T09:11:25;95709.75;;;7.51;100.00
20119;BME280;10220;42.716;23.306;2023-03-01T09:13:51;95707.22;;;7.43;100.00
20119;BME280;10220;42.716;23.306;2023-03-01T09:16:19;95730.59;;;7.64;100.00
20119;BME280;10220;42.716;23.306;2023-03-01T09:18:49;95709.56;;;7.30;100.00
20119;BME280;10220;42.716;23.306;2023-03-01T09:21:16;95710.34;;;7.31;100.00
20119;BME280;10220;42.716;23.306;2023-03-01T09:23:44;95726.78;;;7.30;100.00
20119;BME280;10220;42.716;23.306;2023-03-01T09:26:12;95715.72;;;7.21;100.00
20119;BME280;10220;42.716;23.306;2023-03-01T09:28:39;95724.97;;;7.38;100.00
20119;BME280;10220;42.716;23.306;2023-03-01T09:31:06;95706.63;;;7.33;100.00
20119;BME280;10220;42.716;23.306;2023-03-01T09:33:32;95725.09;;;7.45;100.00
20119;BME280;10220;42.716;23.306;2023-03-01T09:36:03;95726.13;;;7.58;100.00
20119;BME280;10220;42.716;23.306;2023-03-01T09:38:29;95721.56;;;7.68;100.00
20119;BME280;10220;42.716;23.306;2023-03-01T09:40:55;95692.34;;;7.53;100.00
20119;BME280;10220;42.716;23.306;2023-03-01T09:45:59;95713.94;;;7.52;100.00
20119;BME280;10220;42.716;23.306;2023-03-01T09:48:33;95675.66;;;7.41;100.00
20119;BME280;10220;42.716;23.306;2023-03-01T09:51:06;95715.84;;;7.80;100.00
20119;BME280;10220;42.716;23.306;2023-03-01T09:53:36;95686.97;;;7.40;100.00
20119;BME280;10220;42.716;23.306;2023-03-01T09:59:02;95700.69;;;7.55;100.00
20119;BME280;10220;42.716;23.306;2023-03-01T10:01:43;95699.19;;;7.38;100.00
20119;BME280;10220;42.716;23.306;2023-03-01T10:04:45;95689.13;;;7.51;100.00
20119;BME280;10220;42.716;23.306;2023-03-01T10:07:36;95700.75;;;7.47;100.00
20119;BME280;10220;42.716;23.306;2023-03-01T10:10:07;95697.03;;;7.50;100.00
20119;BME280;10220;42.716;23.306;2023-03-01T10:12:35;95640.28;;;7.05;100.00
20119;BME280;10220;42.716;23.306;2023-03-01T10:15:29;95637.28;;;7.24;100.00
20119;BME280;10220;42.716;23.306;2023-03-01T10:18:22;95677.84;;;7.74;100.00
20119;BME280;10220;42.716;23.306;2023-03-01T10:20:58;95692.47;;;7.82;100.00
20119;BME280;10220;42.716;23.306;2023-03-01T10:23:26;95669.53;;;7.64;100.00
20119;BME280;10220;42.716;23.306;2023-03-01T10:31:44;95638.78;;;7.63;100.00
20119;BME280;10220;42.716;23.306;2023-03-01T10:34:14;95644.31;;;7.74;100.00
20119;BME280;10220;42.716;23.306;2023-03-01T10:36:46;95678.13;;;7.79;100.00
20119;BME280;10220;42.716;23.306;2023-03-01T10:39:37;95656.69;;;7.79;100.00
20119;BME280;10220;42.716;23.306;2023-03-01T10:42:39;95618.53;;;7.38;100.00
20119;BME280;10220;42.716;23.306;2023-03-01T10:45:37;95616.31;;;7.49;100.00
20119;BME280;10220;42.716;23.306;2023-03-01T10:48:15;95627.03;;;7.60;100.00
20119;BME280;10220;42.716;23.306;2023-03-01T10:51:12;95620.63;;;7.57;100.00
20119;BME280;10220;42.716;23.306;2023-03-01T10:54:24;95628.69;;;7.76;100.00
20119;BME280;10220;42.716;23.306;2023-03-01T11:05:50;95621.31;;;7.73;100.00
20119;BME280;10220;42.716;23.306;2023-03-01T11:12:20;95671.22;;;8.17;100.00
20119;BME280;10220;42.716;23.306;2023-03-01T11:15:15;95666.41;;;8.14;100.00
20119;BME280;10220;42.716;23.306;2023-03-01T11:17:52;95663.19;;;8.12;100.00
20119;BME280;10220;42.716;23.306;2023-03-01T11:20:47;95655.59;;;8.32;100.00
20119;BME280;10220;42.716;23.306;2023-03-01T11:23:17;95622.41;;;7.93;100.00
20119;BME280;10220;42.716;23.306;2023-03-01T11:25:46;95655.44;;;8.12;100.00
20119;BME280;10220;42.716;23.306;2023-03-01T11:28:17;95632.16;;;7.83;100.00
20119;BME280;10220;42.716;23.306;2023-03-01T11:30:50;95653.06;;;8.24;100.00
20119;BME280;10220;42.716;23.306;2023-03-01T11:38:41;95616.56;;;7.99;100.00
20119;BME280;10220;42.716;23.306;2023-03-01T11:41:14;95639.97;;;8.12;100.00
20119;BME280;10220;42.716;23.306;2023-03-01T11:46:28;95628.97;;;8.32;100.00
20119;BME280;10220;42.716;23.306;2023-03-01T11:51:38;95621.03;;;8.48;100.00
20119;BME280;10220;42.716;23.306;2023-03-01T11:59:54;95609.94;;;8.33;100.00
20119;BME280;10220;42.716;23.306;2023-03-01T12:33:25;95592.22;;;8.30;100.00
20119;BME280;10220;42.716;23.306;2023-03-01T12:41:36;95577.63;;;8.37;100.00
20119;BME280;10220;42.716;23.306;2023-03-01T12:44:47;95592.75;;;8.40;100.00
20119;BME280;10220;42.716;23.306;2023-03-01T12:47:30;95569.09;;;8.36;100.00
20119;BME280;10220;42.716;23.306;2023-03-01T12:50:20;95578.84;;;8.41;100.00
20119;BME280;10220;42.716;23.306;2023-03-01T12:52:57;95583.91;;;8.49;100.00
20119;BME280;10220;42.716;23.306;2023-03-01T12:55:34;95593.34;;;8.56;100.00
20119;BME280;10220;42.716;23.306;2023-03-01T12:58:31;95590.94;;;8.69;100.00
20119;BME280;10220;42.716;23.306;2023-03-01T13:02:12;95594.03;;;8.65;100.00
20119;BME280;10220;42.716;23.306;2023-03-01T13:09:40;95584.13;;;8.82;100.00
20119;BME280;10220;42.716;23.306;2023-03-01T13:15:30;95579.66;;;8.56;100.00
20119;BME280;10220;42.716;23.306;2023-03-01T13:17:58;95588.72;;;8.52;100.00
20119;BME280;10220;42.716;23.306;2023-03-01T13:23:47;95564.88;;;8.50;100.00
20119;BME280;10220;42.716;23.306;2023-03-01T13:26:17;95592.91;;;8.53;100.00
20119;BME280;10220;42.716;23.306;2023-03-01T13:28:48;95587.81;;;8.59;100.00
20119;BME280;10220;42.716;23.306;2023-03-01T13:33:49;95599.41;;;8.49;100.00
20119;BME280;10220;42.716;23.306;2023-03-01T13:41:51;95592.00;;;8.60;100.00
20119;BME280;10220;42.716;23.306;2023-03-01T13:44:38;95592.81;;;8.61;100.00
20119;BME280;10220;42.716;23.306;2023-03-01T13:47:13;95587.72;;;8.67;100.00
20119;BME280;10220;42.716;23.306;2023-03-01T13:52:34;95595.59;;;8.30;100.00
20119;BME280;10220;42.716;23.306;2023-03-01T13:55:03;95562.16;;;8.22;100.00
20119;BME280;10220;42.716;23.306;2023-03-01T13:57:36;95589.09;;;8.34;100.00
20119;BME280;10220;42.716;23.306;2023-03-01T14:00:05;95584.03;;;8.41;100.00
20119;BME280;10220;42.716;23.306;2023-03-01T14:02:30;95557.34;;;8.34;100.00
20119;BME280;10220;42.716;23.306;2023-03-01T14:05:00;95575.81;;;8.37;100.00
20119;BME280;10220;42.716;23.306;2023-03-01T14:07:27;95542.63;;;7.91;100.00
20119;BME280;10220;42.716;23.306;2023-03-01T14:10:03;95578.19;;;8.18;100.00
20119;BME280;10220;42.716;23.306;2023-03-01T14:12:55;95585.63;;;8.13;100.00
20119;BME280;10220;42.716;23.306;2023-03-01T14:18:14;95573.25;;;8.23;100.00
20119;BME280;10220;42.716;23.306;2023-03-01T14:20:44;95566.84;;;8.19;100.00
20119;BME280;10220;42.716;23.306;2023-03-01T14:23:19;95569.78;;;8.30;100.00
20119;BME280;10220;42.716;23.306;2023-03-01T14:25:48;95553.22;;;7.96;100.00
20119;BME280;10220;42.716;23.306;2023-03-01T14:28:24;95571.41;;;8.17;100.00
20119;BME280;10220;42.716;23.306;2023-03-01T14:30:53;95575.66;;;8.24;100.00
20119;BME280;10220;42.716;23.306;2023-03-01T14:38:28;95570.84;;;8.21;100.00
20119;BME280;10220;42.716;23.306;2023-03-01T14:40:58;95564.63;;;8.16;100.00
20119;BME280;10220;42.716;23.306;2023-03-01T14:43:29;95563.09;;;7.93;100.00
20119;BME280;10220;42.716;23.306;2023-03-01T14:45:55;95572.16;;;7.89;100.00
20119;BME280;10220;42.716;23.306;2023-03-01T14:48:23;95577.13;;;7.90;100.00
20119;BME280;10220;42.716;23.306;2023-03-01T14:50:50;95560.03;;;7.89;100.00
20119;BME280;10220;42.716;23.306;2023-03-01T14:53:26;95570.03;;;7.92;100.00
20119;BME280;10220;42.716;23.306;2023-03-01T14:56:00;95569.13;;;7.85;100.00
20119;BME280;10220;42.716;23.306;2023-03-01T14:58:32;95574.28;;;7.85;100.00
20119;BME280;10220;42.716;23.306;2023-03-01T15:01:03;95565.91;;;7.69;100.00
20119;BME280;10220;42.716;23.306;2023-03-01T15:03:37;95556.88;;;7.87;100.00